Time;durP1;ratioP1;P1;durP2;ratioP2;P2;SDS_P1;SDS_P2;PMS_P1;PMS_P2;Temp;Humidity;BMP_temperature;BMP_pressure;BME280_temperature;BME280_humidity;BME280_pressure;Samples;Min_cycle;Max_cycle;Signal;HPM_P1;HPM_P2
2024/02/14 00:01:43;;;;;;;11.38;3.80;;;;;;;;;;5015710;28;20401;-75
2024/02/14 00:04:10;;;;;;;9.77;3.15;;;;;;;;;;5006457;28;20524;-75
2024/02/14 00:06:37;;;;;;;9.20;3.03;;;;;;;;;;5014123;28;20039;-75
2024/02/14 00:09:03;;;;;;;9.57;3.10;;;;;;;;;;4999844;28;20029;-75
2024/02/14 00:11:29;;;;;;;;;;;;;;;;;;5011646;28;20285;-75
2024/02/14 00:13:56;;;;;;;7.60;3.00;;;;;;;;;;5018945;28;20659;-75
2024/02/14 00:16:22;;;;;;;9.70;3.15;;;;;;;;;;5003588;28;20044;-75
2024/02/14 00:18:48;;;;;;;9.52;4.20;;;;;;;;;;4996004;28;20033;-76
2024/02/14 00:21:14;;;;;;;;;;;;;;;;;;5018507;28;20112;-76
2024/02/14 00:23:40;;;;;;;9.68;3.00;;;;;;;;;;5004547;28;19919;-75
2024/02/14 00:26:06;;;;;;;9.98;3.50;;;;;;;;;;5005297;28;20100;-73
2024/02/14 00:28:33;;;;;;;10.55;3.65;;;;;;;;;;4998858;28;20048;-77
2024/02/14 00:30:59;;;;;;;8.38;2.95;;;;;;;;;;5004613;28;20035;-76
2024/02/14 00:33:25;;;;;;;;;;;;;;;;;;4999569;28;20150;-76
2024/02/14 00:35:52;;;;;;;10.40;3.00;;;;;;;;;;4998859;28;19955;-76
2024/02/14 00:38:18;;;;;;;7.90;2.53;;;;;;;;;;5016722;28;20049;-76
2024/02/14 00:40:44;;;;;;;8.82;2.60;;;;;;;;;;5011335;28;20458;-76
2024/02/14 00:43:10;;;;;;;9.88;2.90;;;;;;;;;;5002932;28;20664;-76
2024/02/14 00:45:38;;;;;;;8.07;3.00;;;;;;;;;;5002064;28;20033;-76
2024/02/14 00:48:04;;;;;;;9.13;2.95;;;;;;;;;;5007884;28;20689;-76
2024/02/14 00:50:30;;;;;;;10.45;3.30;;;;;;;;;;5013664;28;20057;-75
2024/02/14 00:52:56;;;;;;;9.32;3.05;;;;;;;;;;5017762;28;20108;-76
2024/02/14 00:55:23;;;;;;;9.95;3.30;;;;;;;;;;5006677;28;20124;-76
2024/02/14 00:57:49;;;;;;;7.82;2.90;;;;;;;;;;5002372;28;20033;-77
2024/02/14 01:00:17;;;;;;;7.95;2.60;;;;;;;;;;5010576;28;20072;-76
2024/02/14 01:02:43;;;;;;;7.22;2.42;;;;;;;;;;5005249;28;20025;-77
2024/02/14 01:05:09;;;;;;;8.30;2.45;;;;;;;;;;5015897;28;20285;-78
2024/02/14 01:07:36;;;;;;;8.20;2.30;;;;;;;;;;5018647;28;20013;-74
2024/02/14 01:10:02;;;;;;;6.00;2.17;;;;;;;;;;5017404;28;20032;-77
2024/02/14 01:12:29;;;;;;;7.50;2.50;;;;;;;;;;5014207;28;20032;-79
2024/02/14 01:14:55;;;;;;;9.18;2.45;;;;;;;;;;5005114;28;20072;-76
2024/02/14 01:17:21;;;;;;;6.05;1.85;;;;;;;;;;5021923;28;20044;-76
2024/02/14 01:19:48;;;;;;;7.28;1.90;;;;;;;;;;5016845;28;20500;-76
2024/02/14 01:22:16;;;;;;;6.82;2.20;;;;;;;;;;5003190;28;20033;-76
2024/02/14 01:24:43;;;;;;;6.82;2.10;;;;;;;;;;5004129;28;20082;-77
2024/02/14 01:27:09;;;;;;;7.40;1.98;;;;;;;;;;5002566;28;20056;-76
2024/02/14 01:29:35;;;;;;;;;;;;;;;;;;5017558;28;20057;-77
2024/02/14 01:32:01;;;;;;;8.70;2.65;;;;;;;;;;5016706;28;20764;-76
2024/02/14 01:34:31;;;;;;;7.63;2.75;;;;;;;;;;5005293;28;20057;-76
2024/02/14 01:36:57;;;;;;;6.13;2.08;;;;;;;;;;5022086;28;20025;-78
2024/02/14 01:39:23;;;;;;;9.38;3.42;;;;;;;;;;5002588;28;20055;-79
2024/02/14 01:41:49;;;;;;;9.45;3.65;;;;;;;;;;5002375;28;20028;-78
2024/02/14 01:44:16;;;;;;;9.90;3.53;;;;;;;;;;5001162;28;20604;-79
2024/02/14 01:46:43;;;;;;;8.13;2.78;;;;;;;;;;5019846;28;20039;-79
2024/02/14 01:49:11;;;;;;;7.90;2.65;;;;;;;;;;5021686;28;20622;-79
2024/02/14 01:51:38;;;;;;;6.55;2.22;;;;;;;;;;5020164;28;20484;-79
2024/02/14 01:54:06;;;;;;;7.13;2.30;;;;;;;;;;5008560;28;20033;-78
2024/02/14 01:56:32;;;;;;;6.72;2.20;;;;;;;;;;5023644;28;20700;-78
2024/02/14 01:58:59;;;;;;;6.93;1.95;;;;;;;;;;5008962;28;20079;-78
2024/02/14 02:01:25;;;;;;;8.00;2.10;;;;;;;;;;5007773;28;20029;-79
2024/02/14 02:03:51;;;;;;;;;;;;;;;;;;5022351;28;20018;-79
2024/02/14 02:06:17;;;;;;;7.18;1.90;;;;;;;;;;5025117;28;19967;-79
2024/02/14 02:08:44;;;;;;;6.00;1.92;;;;;;;;;;5008139;28;20048;-80
2024/02/14 02:11:10;;;;;;;9.07;2.60;;;;;;;;;;5019547;28;20043;-79
2024/02/14 02:13:38;;;;;;;;;;;;;;;;;;5017536;28;20048;-78
2024/02/14 02:16:05;;;;;;;7.80;2.40;;;;;;;;;;5009388;28;19913;-79
2024/02/14 02:18:34;;;;;;;5.65;1.83;;;;;;;;;;5018162;28;20022;-80
2024/02/14 02:21:03;;;;;;;5.97;1.80;;;;;;;;;;5021226;28;20312;-79
2024/02/14 02:23:30;;;;;;;6.45;1.90;;;;;;;;;;5013806;28;20025;-80
2024/02/14 02:25:57;;;;;;;7.43;1.80;;;;;;;;;;5012577;28;20032;-79
2024/02/14 02:28:23;;;;;;;7.15;2.00;;;;;;;;;;5020272;28;20819;-79
2024/02/14 02:30:50;;;;;;;7.72;2.20;;;;;;;;;;5018576;28;20112;-78
2024/02/14 02:33:16;;;;;;;;;;;;;;;;;;5012220;28;20044;-79
2024/02/14 02:35:45;;;;;;;6.82;1.90;;;;;;;;;;5010538;28;19912;-78
2024/02/14 02:38:12;;;;;;;6.95;1.73;;;;;;;;;;5006305;28;20264;-78
2024/02/14 02:40:38;;;;;;;6.40;1.90;;;;;;;;;;5000912;28;20033;-77
2024/02/14 02:43:05;;;;;;;6.07;1.73;;;;;;;;;;5005964;28;20072;-80
2024/02/14 02:45:31;;;;;;;6.68;1.77;;;;;;;;;;5000641;28;20025;-77
2024/02/14 02:47:58;;;;;;;6.80;1.70;;;;;;;;;;5002151;28;20041;-78
2024/02/14 02:50:25;;;;;;;6.15;1.80;;;;;;;;;;5004831;28;20021;-78
2024/02/14 02:52:51;;;;;;;7.05;1.70;;;;;;;;;;5001072;28;20164;-77
2024/02/14 02:55:18;;;;;;;7.30;1.52;;;;;;;;;;5005113;28;20034;-80
2024/02/14 02:57:45;;;;;;;;;;;;;;;;;;5004681;28;20033;-80
2024/02/14 03:00:15;;;;;;;7.15;1.88;;;;;;;;;;5005171;28;19936;-78
2024/02/14 03:02:44;;;;;;;6.00;1.75;;;;;;;;;;4995918;28;20752;-80
2024/02/14 03:05:17;;;;;;;5.90;1.60;;;;;;;;;;5004814;28;20518;-78
2024/02/14 03:07:45;;;;;;;5.75;1.77;;;;;;;;;;4998082;28;20029;-79
2024/02/14 03:10:13;;;;;;;6.95;1.80;;;;;;;;;;5007702;28;20036;-79
2024/02/14 03:12:39;;;;;;;6.80;1.58;;;;;;;;;;5002164;28;20608;-78
2024/02/14 03:15:06;;;;;;;6.00;1.48;;;;;;;;;;5001039;28;20034;-79
2024/02/14 03:17:32;;;;;;;;;;;;;;;;;;5001993;28;20046;-78
2024/02/14 03:19:58;;;;;;;5.40;1.58;;;;;;;;;;5004791;28;20460;-79
2024/02/14 03:22:24;;;;;;;7.03;1.85;;;;;;;;;;5005378;28;20029;-78
2024/02/14 03:24:50;;;;;;;4.72;1.30;;;;;;;;;;5003558;28;20025;-79
2024/02/14 03:27:17;;;;;;;5.25;1.40;;;;;;;;;;5002242;28;20026;-80
2024/02/14 03:29:44;;;;;;;5.03;1.60;;;;;;;;;;5002373;28;20081;-80
2024/02/14 03:32:10;;;;;;;5.57;1.45;;;;;;;;;;5003188;28;20117;-79
2024/02/14 03:34:36;;;;;;;4.95;1.52;;;;;;;;;;5002940;28;20025;-78
2024/02/14 03:37:02;;;;;;;;;;;;;;;;;;5008940;28;20049;-78
2024/02/14 03:39:31;;;;;;;6.03;1.35;;;;;;;;;;5021798;28;19919;-78
2024/02/14 03:42:00;;;;;;;4.25;1.27;;;;;;;;;;5006602;28;20041;-79
2024/02/14 03:44:26;;;;;;;6.15;1.45;;;;;;;;;;5022112;28;20025;-78
2024/02/14 03:46:53;;;;;;;4.20;1.30;;;;;;;;;;5005912;28;20033;-79
2024/02/14 03:49:19;;;;;;;5.57;1.45;;;;;;;;;;5016911;28;20033;-79
2024/02/14 03:51:46;;;;;;;5.95;1.48;;;;;;;;;;5004844;28;21035;-78
2024/02/14 03:54:12;;;;;;;4.72;1.50;;;;;;;;;;5003688;28;20029;-80
2024/02/14 03:56:38;;;;;;;4.47;1.27;;;;;;;;;;5017561;28;20040;-81
2024/02/14 03:59:05;;;;;;;3.60;1.23;;;;;;;;;;5022450;28;20825;-80
2024/02/14 04:01:32;;;;;;;6.18;1.48;;;;;;;;;;5007094;28;21350;-80
2024/02/14 04:03:58;;;;;;;;;;;;;;;;;;5017794;28;20021;-80
2024/02/14 04:06:26;;;;;;;7.60;1.60;;;;;;;;;;5011678;28;19912;-82
2024/02/14 04:08:52;;;;;;;4.93;1.33;;;;;;;;;;5023621;28;20040;-80
2024/02/14 04:11:18;;;;;;;6.35;1.50;;;;;;;;;;5005983;28;20040;-80
2024/02/14 04:13:45;;;;;;;5.13;1.35;;;;;;;;;;5008962;28;20034;-79
2024/02/14 04:16:12;;;;;;;4.40;1.33;;;;;;;;;;5026307;28;20597;-79
2024/02/14 04:18:38;;;;;;;5.40;1.60;;;;;;;;;;5021973;28;20041;-78
2024/02/14 04:21:04;;;;;;;5.15;1.30;;;;;;;;;;5032053;28;20091;-79
2024/02/14 04:23:30;;;;;;;;;;;;;;;;;;5014366;28;20492;-79
2024/02/14 04:25:57;;;;;;;5.90;1.60;;;;;;;;;;5026025;28;19924;-79
2024/02/14 04:28:23;;;;;;;5.55;1.48;;;;;;;;;;5015027;28;20036;-79
2024/02/14 04:30:49;;;;;;;5.47;1.45;;;;;;;;;;5010442;28;20025;-79
2024/02/14 04:33:15;;;;;;;5.05;1.35;;;;;;;;;;5017031;28;20035;-78
2024/02/14 04:35:41;;;;;;;5.70;1.55;;;;;;;;;;5028007;28;20029;-81
2024/02/14 04:38:08;;;;;;;5.53;1.38;;;;;;;;;;5011250;28;20136;-81
2024/02/14 04:40:34;;;;;;;5.90;1.50;;;;;;;;;;5014390;28;20025;-81
2024/02/14 04:43:00;;;;;;;5.93;1.52;;;;;;;;;;5014261;28;20067;-78
2024/02/14 04:45:27;;;;;;;5.35;1.60;;;;;;;;;;5029315;28;20029;-78
2024/02/14 04:47:53;;;;;;;5.57;1.50;;;;;;;;;;5014823;28;20380;-78
2024/02/14 04:50:19;;;;;;;5.45;1.58;;;;;;;;;;5008772;28;20061;-80
2024/02/14 04:52:46;;;;;;;5.45;1.30;;;;;;;;;;5007934;28;20873;-80
2024/02/14 04:55:12;;;;;;;5.80;1.60;;;;;;;;;;5003177;28;20024;-80
2024/02/14 04:57:39;;;;;;;4.80;1.45;;;;;;;;;;5003764;28;20281;-80
2024/02/14 05:00:05;;;;;;;;;;;;;;;;;;5020701;28;20029;-79
2024/02/14 05:02:31;;;;;;;5.18;1.58;;;;;;;;;;5023717;28;19923;-78
2024/02/14 05:04:58;;;;;;;6.78;1.50;;;;;;;;;;5005584;28;20040;-79
2024/02/14 05:07:24;;;;;;;8.35;1.90;;;;;;;;;;5003294;28;20025;-78
2024/02/14 05:09:52;;;;;;;6.90;2.00;;;;;;;;;;5021372;28;20724;-80
2024/02/14 05:12:19;;;;;;;5.97;1.90;;;;;;;;;;5016738;28;20487;-79
2024/02/14 05:14:46;;;;;;;7.57;1.85;;;;;;;;;;5026132;28;20029;-78
2024/02/14 05:17:12;;;;;;;6.90;1.92;;;;;;;;;;5013558;28;20519;-79
2024/02/14 05:19:38;;;;;;;4.68;1.60;;;;;;;;;;5023396;28;20029;-79
2024/02/14 05:22:04;;;;;;;6.97;2.08;;;;;;;;;;5016375;28;20109;-78
2024/02/14 05:24:31;;;;;;;;;;;;;;;;;;5015453;28;20033;-79
2024/02/14 05:26:57;;;;;;;6.93;2.17;;;;;;;;;;5020241;28;20577;-79
2024/02/14 05:29:23;;;;;;;7.40;2.00;;;;;;;;;;5033778;28;20376;-78
2024/02/14 05:31:49;;;;;;;6.68;2.10;;;;;;;;;;5031197;28;20037;-80
2024/02/14 05:34:15;;;;;;;;;;;;;;;;;;5015541;28;20040;-80
2024/02/14 05:36:45;;;;;;;6.57;1.80;;;;;;;;;;5035412;28;19913;-80
2024/02/14 05:39:12;;;;;;;5.60;1.90;;;;;;;;;;5027573;28;20659;-81
2024/02/14 05:41:38;;;;;;;5.57;1.73;;;;;;;;;;5017957;28;20600;-80
2024/02/14 05:44:04;;;;;;;;;;;;;;;;;;5021417;28;20021;-80
2024/02/14 05:46:30;;;;;;;6.40;2.10;;;;;;;;;;5035164;28;19917;-80
2024/02/14 05:48:57;;;;;;;7.35;2.05;;;;;;;;;;5020532;28;20083;-81
2024/02/14 05:51:23;;;;;;;9.05;2.85;;;;;;;;;;5025611;28;20030;-81
2024/02/14 05:53:49;;;;;;;13.25;3.40;;;;;;;;;;5027007;28;20026;-80
2024/02/14 05:56:16;;;;;;;7.10;2.60;;;;;;;;;;5031714;28;20038;-80
2024/02/14 05:58:42;;;;;;;;;;;;;;;;;;5028687;28;20036;-81
2024/02/14 06:01:08;;;;;;;7.30;2.60;;;;;;;;;;5042450;28;19912;-80
2024/02/14 06:03:34;;;;;;;6.28;2.42;;;;;;;;;;5050100;28;20037;-80
2024/02/14 06:06:00;;;;;;;9.23;3.08;;;;;;;;;;5020660;28;20051;-80
2024/02/14 06:08:26;;;;;;;;;;;;;;;;;;5029194;28;20036;-79
2024/02/14 06:10:53;;;;;;;9.52;4.05;;;;;;;;;;5034110;28;20007;-79
2024/02/14 06:13:19;;;;;;;12.20;5.95;;;;;;;;;;5035649;28;20037;-79
2024/02/14 06:15:45;;;;;;;;;;;;;;;;;;5027240;28;20029;-80
2024/02/14 06:18:11;;;;;;;10.18;4.45;;;;;;;;;;5012414;28;19982;-80
2024/02/14 06:20:39;;;;;;;11.43;4.82;;;;;;;;;;5008990;28;20032;-80
2024/02/14 06:23:07;;;;;;;12.05;5.38;;;;;;;;;;5009039;28;20020;-79
2024/02/14 06:25:33;;;;;;;11.02;4.90;;;;;;;;;;5018773;28;20021;-79
2024/02/14 06:27:59;;;;;;;15.25;5.68;;;;;;;;;;5024651;28;20032;-80
2024/02/14 06:30:26;;;;;;;17.77;5.43;;;;;;;;;;5022391;28;20032;-80
2024/02/14 06:32:52;;;;;;;10.32;4.38;;;;;;;;;;5019488;28;20032;-80
2024/02/14 06:35:18;;;;;;;13.80;4.18;;;;;;;;;;5014671;28;20113;-80
2024/02/14 06:37:45;;;;;;;10.77;4.03;;;;;;;;;;5014079;28;20050;-80
2024/02/14 06:40:12;;;;;;;11.55;3.80;;;;;;;;;;5013937;28;20036;-81
2024/02/14 06:42:38;;;;;;;13.73;3.70;;;;;;;;;;5005766;28;20029;-79
2024/02/14 06:45:05;;;;;;;13.23;3.92;;;;;;;;;;5011522;28;20030;-78
2024/02/14 06:47:31;;;;;;;12.00;4.25;;;;;;;;;;5007357;28;20684;-81
2024/02/14 06:49:57;;;;;;;11.35;3.58;;;;;;;;;;4999486;28;20033;-81
2024/02/14 06:52:24;;;;;;;8.18;2.63;;;;;;;;;;5008286;28;20759;-80
2024/02/14 06:54:51;;;;;;;6.50;1.98;;;;;;;;;;4993878;28;20095;-79
2024/02/14 06:57:17;;;;;;;8.38;2.45;;;;;;;;;;4999976;28;20121;-79
2024/02/14 06:59:44;;;;;;;9.40;2.72;;;;;;;;;;5002252;28;20124;-78
2024/02/14 07:02:10;;;;;;;8.70;2.40;;;;;;;;;;4989723;28;20050;-79
2024/02/14 07:04:37;;;;;;;10.65;2.40;;;;;;;;;;5008208;28;20091;-80
2024/02/14 07:07:03;;;;;;;8.73;2.22;;;;;;;;;;5003086;28;20021;-80
2024/02/14 07:09:29;;;;;;;6.00;1.90;;;;;;;;;;4999128;28;20042;-80
2024/02/14 07:11:58;;;;;;;8.20;2.20;;;;;;;;;;5003123;28;20040;-80
2024/02/14 07:14:24;;;;;;;6.82;2.17;;;;;;;;;;5004295;28;20038;-80
2024/02/14 07:16:51;;;;;;;6.15;2.13;;;;;;;;;;5005235;28;20041;-80
2024/02/14 07:19:17;;;;;;;8.40;2.50;;;;;;;;;;5003870;28;20056;-79
2024/02/14 07:21:43;;;;;;;7.82;2.60;;;;;;;;;;5007073;28;20056;-79
2024/02/14 07:24:09;;;;;;;8.57;2.42;;;;;;;;;;5002689;28;20155;-78
2024/02/14 07:26:36;;;;;;;7.38;2.15;;;;;;;;;;4999595;28;20022;-81
2024/02/14 07:29:03;;;;;;;8.38;2.30;;;;;;;;;;5011644;28;20187;-79
2024/02/14 07:31:34;;;;;;;8.82;2.47;;;;;;;;;;5013781;28;20034;-78
2024/02/14 07:34:02;;;;;;;9.70;2.88;;;;;;;;;;5004898;28;20033;-78
2024/02/14 07:36:29;;;;;;;9.70;3.03;;;;;;;;;;5003908;28;20033;-78
2024/02/14 07:38:55;;;;;;;10.10;3.47;;;;;;;;;;5020289;28;20165;-78
2024/02/14 07:41:21;;;;;;;16.73;3.78;;;;;;;;;;5020084;28;20088;-80
2024/02/14 07:43:47;;;;;;;23.45;4.05;;;;;;;;;;5019597;28;20032;-79
2024/02/14 07:46:19;;;;;;;9.93;3.10;;;;;;;;;;5021304;28;20040;-78
2024/02/14 07:48:46;;;;;;;12.57;4.00;;;;;;;;;;5004810;28;20143;-79
2024/02/14 07:51:12;;;;;;;;;;;;;;;;;;5010958;28;20082;-79
2024/02/14 07:53:38;;;;;;;13.60;4.00;;;;;;;;;;5002268;28;19971;-80
2024/02/14 07:56:04;;;;;;;15.77;4.22;;;;;;;;;;5019355;28;20492;-79
2024/02/14 07:58:30;;;;;;;;;;;;;;;;;;5013295;28;20037;-79
2024/02/14 08:00:56;;;;;;;10.85;4.05;;;;;;;;;;5010262;28;19991;-79
2024/02/14 08:03:22;;;;;;;13.15;4.28;;;;;;;;;;5009336;28;20033;-79
2024/02/14 08:05:49;;;;;;;15.30;4.55;;;;;;;;;;5008100;28;20040;-79
2024/02/14 08:08:16;;;;;;;10.80;4.30;;;;;;;;;;5008950;28;20151;-79
2024/02/14 08:10:42;;;;;;;18.35;5.00;;;;;;;;;;5019579;28;20112;-79
2024/02/14 08:13:08;;;;;;;15.32;7.45;;;;;;;;;;5021018;28;20040;-79
2024/02/14 08:15:34;;;;;;;14.45;6.32;;;;;;;;;;5010276;28;20048;-80
2024/02/14 08:18:00;;;;;;;13.18;5.95;;;;;;;;;;5026897;28;20108;-79
2024/02/14 08:20:26;;;;;;;;;;;;;;;;;;5011989;28;20034;-79
2024/02/14 08:22:52;;;;;;;15.57;6.00;;;;;;;;;;5010807;28;20349;-79
2024/02/14 08:25:18;;;;;;;18.67;5.80;;;;;;;;;;5008146;28;20096;-79
2024/02/14 08:27:47;;;;;;;;;;;;;;;;;;5009981;28;20054;-78
2024/02/14 08:30:13;;;;;;;14.30;5.00;;;;;;;;;;5015937;28;20525;-79
2024/02/14 08:32:39;;;;;;;13.93;5.47;;;;;;;;;;5008351;28;20159;-79
2024/02/14 08:35:07;;;;;;;;;;;;;;;;;;5013592;28;20020;-78
2024/02/14 08:37:36;;;;;;;16.15;5.82;;;;;;;;;;5005373;28;19928;-78
2024/02/14 08:40:05;;;;;;;12.05;4.93;;;;;;;;;;5010591;28;20589;-79
2024/02/14 08:42:31;;;;;;;20.27;6.60;;;;;;;;;;5019247;28;20040;-78
2024/02/14 08:44:58;;;;;;;15.88;6.32;;;;;;;;;;5009251;28;20060;-78
2024/02/14 08:47:24;;;;;;;;;;;;;;;;;;5009176;28;20032;-78
2024/02/14 08:49:50;;;;;;;16.92;5.63;;;;;;;;;;5008590;28;20097;-79
2024/02/14 08:52:16;;;;;;;19.55;5.43;;;;;;;;;;5025440;28;20030;-79
2024/02/14 08:54:43;;;;;;;15.77;4.65;;;;;;;;;;5021124;28;20052;-79
2024/02/14 08:57:09;;;;;;;19.17;5.20;;;;;;;;;;5021832;28;20049;-77
2024/02/14 08:59:35;;;;;;;22.33;5.30;;;;;;;;;;5010948;28;20036;-78
2024/02/14 09:02:02;;;;;;;14.10;4.10;;;;;;;;;;5019175;28;20064;-78
2024/02/14 09:04:28;;;;;;;13.00;4.18;;;;;;;;;;5003263;28;20036;-78
2024/02/14 09:06:54;;;;;;;22.38;4.85;;;;;;;;;;5024610;28;20053;-78
2024/02/14 09:09:20;;;;;;;29.08;6.90;;;;;;;;;;5023847;28;20132;-78
2024/02/14 09:11:47;;;;;;;27.05;7.05;;;;;;;;;;5005434;28;21715;-78
2024/02/14 09:14:13;;;;;;;35.08;9.52;;;;;;;;;;5010373;28;20049;-78
2024/02/14 09:16:39;;;;;;;34.72;11.55;;;;;;;;;;5019939;28;20029;-78
2024/02/14 09:19:07;;;;;;;30.63;12.75;;;;;;;;;;5023409;28;20104;-79
2024/02/14 09:21:37;;;;;;;22.63;13.55;;;;;;;;;;5001063;28;20024;-78
2024/02/14 09:24:03;;;;;;;20.75;11.05;;;;;;;;;;5019534;28;20036;-78
2024/02/14 09:26:30;;;;;;;19.05;9.95;;;;;;;;;;5005693;28;20041;-79
2024/02/14 09:28:56;;;;;;;15.95;8.07;;;;;;;;;;5021067;28;20082;-77
2024/02/14 09:31:22;;;;;;;17.30;7.25;;;;;;;;;;5021240;28;20037;-78
2024/02/14 09:33:49;;;;;;;13.27;6.03;;;;;;;;;;5026108;28;20351;-78
2024/02/14 09:36:15;;;;;;;11.25;4.78;;;;;;;;;;5029982;28;20056;-79
2024/02/14 09:38:42;;;;;;;11.90;5.18;;;;;;;;;;5035272;28;20133;-79
2024/02/14 09:41:15;;;;;;;11.45;4.35;;;;;;;;;;5012030;28;20033;-78
2024/02/14 09:43:43;;;;;;;10.52;3.60;;;;;;;;;;5020458;28;20170;-80
2024/02/14 09:46:12;;;;;;;9.30;3.40;;;;;;;;;;5022654;28;20025;-77
2024/02/14 09:48:39;;;;;;;9.77;2.60;;;;;;;;;;5002359;28;20094;-78
2024/02/14 09:51:06;;;;;;;8.82;2.67;;;;;;;;;;5019287;28;20117;-80
2024/02/14 09:53:33;;;;;;;9.23;2.33;;;;;;;;;;5023411;28;20103;-80
2024/02/14 09:56:00;;;;;;;7.63;2.08;;;;;;;;;;5006303;28;20096;-80
2024/02/14 09:58:27;;;;;;;6.57;2.05;;;;;;;;;;5012086;28;20028;-80
2024/02/14 10:00:59;;;;;;;6.25;2.20;;;;;;;;;;5006939;28;20068;-79
2024/02/14 10:03:26;;;;;;;8.25;2.20;;;;;;;;;;5006479;28;20538;-78
2024/02/14 10:05:52;;;;;;;5.07;1.67;;;;;;;;;;5007367;28;20028;-77
2024/02/14 10:08:20;;;;;;;11.70;2.17;;;;;;;;;;5010568;28;20037;-79
2024/02/14 10:10:47;;;;;;;11.93;2.17;;;;;;;;;;5010447;28;22212;-79
2024/02/14 10:13:13;;;;;;;6.55;1.52;;;;;;;;;;5023911;28;20025;-80
2024/02/14 10:15:39;;;;;;;9.88;1.80;;;;;;;;;;5005113;28;20065;-80
2024/02/14 10:18:05;;;;;;;40.92;6.72;;;;;;;;;;5023941;28;20030;-80
2024/02/14 10:20:33;;;;;;;9.63;2.17;;;;;;;;;;5008952;28;20040;-78
2024/02/14 10:23:03;;;;;;;7.97;1.73;;;;;;;;;;5012737;28;20504;-78
2024/02/14 10:25:31;;;;;;;5.05;1.50;;;;;;;;;;5005409;28;20107;-80
2024/02/14 10:27:57;;;;;;;7.45;1.40;;;;;;;;;;5024201;28;20564;-78
2024/02/14 10:30:23;;;;;;;5.25;1.35;;;;;;;;;;5006729;28;20668;-78
2024/02/14 10:32:49;;;;;;;7.05;1.63;;;;;;;;;;5023481;28;20030;-78
2024/02/14 10:35:16;;;;;;;6.10;1.75;;;;;;;;;;5008221;28;20029;-78
2024/02/14 10:37:42;;;;;;;5.80;1.15;;;;;;;;;;5019674;28;20048;-78
2024/02/14 10:40:09;;;;;;;3.83;0.88;;;;;;;;;;5010105;28;20033;-79
2024/02/14 10:42:35;;;;;;;4.88;1.15;;;;;;;;;;5021362;28;20065;-79
2024/02/14 10:45:02;;;;;;;4.80;1.20;;;;;;;;;;5024595;28;20737;-78
2024/02/14 10:47:32;;;;;;;5.28;1.20;;;;;;;;;;5025255;28;20549;-78
2024/02/14 10:50:01;;;;;;;7.60;1.70;;;;;;;;;;5030451;28;20111;-77
2024/02/14 10:52:32;;;;;;;10.18;3.53;;;;;;;;;;5009401;28;20129;-77
2024/02/14 10:55:00;;;;;;;11.55;3.38;;;;;;;;;;5011747;28;20120;-77
2024/02/14 10:57:26;;;;;;;8.95;2.55;;;;;;;;;;5005138;28;20036;-78
2024/02/14 10:59:54;;;;;;;6.90;1.73;;;;;;;;;;5011702;28;20057;-78
2024/02/14 11:02:20;;;;;;;7.43;1.73;;;;;;;;;;5026225;28;20584;-78
2024/02/14 11:04:46;;;;;;;6.47;1.52;;;;;;;;;;5024417;28;20416;-79
2024/02/14 11:07:15;;;;;;;6.47;1.45;;;;;;;;;;5038209;28;20018;-78
2024/02/14 11:09:41;;;;;;;6.60;1.60;;;;;;;;;;5029392;28;20033;-79
2024/02/14 11:12:08;;;;;;;5.97;1.70;;;;;;;;;;5021379;28;20065;-80
2024/02/14 11:14:36;;;;;;;7.53;2.20;;;;;;;;;;5012714;28;20043;-81
2024/02/14 11:17:03;;;;;;;7.97;2.35;;;;;;;;;;5026988;28;20024;-80
2024/02/14 11:19:36;;;;;;;7.47;2.35;;;;;;;;;;5021630;28;20029;-79
2024/02/14 11:22:16;;;;;;;8.50;2.60;;;;;;;;;;5017405;28;20032;-79
2024/02/14 11:24:42;;;;;;;8.70;2.47;;;;;;;;;;5016956;28;20035;-80
2024/02/14 11:27:11;;;;;;;7.65;2.20;;;;;;;;;;5008955;28;20070;-79
2024/02/14 11:29:41;;;;;;;8.68;2.72;;;;;;;;;;5022761;28;20044;-79
2024/02/14 11:32:10;;;;;;;8.52;2.80;;;;;;;;;;5030547;28;20033;-79
2024/02/14 11:34:37;;;;;;;6.78;2.22;;;;;;;;;;5020727;28;20297;-81
2024/02/14 11:37:05;;;;;;;7.00;2.13;;;;;;;;;;5019890;28;20038;-80
2024/02/14 11:39:33;;;;;;;10.90;2.70;;;;;;;;;;5006738;28;20064;-80
2024/02/14 11:41:59;;;;;;;8.25;2.53;;;;;;;;;;5014052;28;20026;-80
2024/02/14 11:44:25;;;;;;;7.05;2.08;;;;;;;;;;5009963;28;20034;-79
2024/02/14 11:46:52;;;;;;;8.57;2.20;;;;;;;;;;5009916;28;20026;-80
2024/02/14 11:49:18;;;;;;;8.02;2.20;;;;;;;;;;5006639;28;20049;-79
2024/02/14 11:51:44;;;;;;;7.43;2.33;;;;;;;;;;5009885;28;20464;-79
2024/02/14 11:54:11;;;;;;;9.35;2.35;;;;;;;;;;5014624;28;20084;-79
2024/02/14 11:56:38;;;;;;;9.48;2.58;;;;;;;;;;5010282;28;20584;-79
2024/02/14 11:59:05;;;;;;;7.47;2.20;;;;;;;;;;5020262;28;20086;-80
2024/02/14 12:01:32;;;;;;;7.60;2.00;;;;;;;;;;5016284;28;20523;-81
2024/02/14 12:04:03;;;;;;;6.18;1.73;;;;;;;;;;5014675;28;20029;-80
2024/02/14 12:06:31;;;;;;;9.95;2.22;;;;;;;;;;5015010;28;20091;-80
2024/02/14 12:09:04;;;;;;;8.70;2.63;;;;;;;;;;5024880;28;20025;-80
2024/02/14 12:11:32;;;;;;;9.15;2.80;;;;;;;;;;5029879;28;20029;-80
2024/02/14 12:14:02;;;;;;;7.97;2.30;;;;;;;;;;5017179;28;20588;-81
2024/02/14 12:16:28;;;;;;;7.30;2.05;;;;;;;;;;5026226;28;20059;-79
2024/02/14 12:19:09;;;;;;;6.75;1.98;;;;;;;;;;5032891;28;20029;-80
2024/02/14 12:21:36;;;;;;;8.88;2.47;;;;;;;;;;5018966;28;20025;-80
2024/02/14 12:24:03;;;;;;;7.45;2.28;;;;;;;;;;5024790;28;20028;-80
2024/02/14 12:26:31;;;;;;;9.55;3.13;;;;;;;;;;5020403;28;20025;-81
2024/02/14 12:28:58;;;;;;;8.18;2.78;;;;;;;;;;5016792;28;20017;-80
2024/02/14 12:31:24;;;;;;;8.02;2.78;;;;;;;;;;5013570;28;20401;-80
2024/02/14 12:33:54;;;;;;;10.23;2.50;;;;;;;;;;5018139;28;20039;-80
2024/02/14 12:36:20;;;;;;;8.65;2.58;;;;;;;;;;5029299;28;20098;-81
2024/02/14 12:38:46;;;;;;;9.02;2.47;;;;;;;;;;5026270;28;20060;-80
2024/02/14 12:41:12;;;;;;;6.78;2.00;;;;;;;;;;5029061;28;20029;-79
2024/02/14 12:43:39;;;;;;;7.50;2.17;;;;;;;;;;5012174;28;20107;-80
2024/02/14 12:46:05;;;;;;;5.68;1.67;;;;;;;;;;5026163;28;20141;-80
2024/02/14 12:48:31;;;;;;;6.63;1.70;;;;;;;;;;5005777;28;20041;-79
2024/02/14 12:50:57;;;;;;;6.57;1.92;;;;;;;;;;5008168;28;20051;-78
2024/02/14 12:53:24;;;;;;;7.80;1.95;;;;;;;;;;5018007;28;20624;-79
2024/02/14 12:55:50;;;;;;;5.95;1.35;;;;;;;;;;4997133;28;20055;-80
2024/02/14 12:58:17;;;;;;;5.28;1.48;;;;;;;;;;5005987;28;20497;-79
2024/02/14 13:00:44;;;;;;;6.40;1.50;;;;;;;;;;5010687;28;20029;-79
2024/02/14 13:03:10;;;;;;;6.30;1.50;;;;;;;;;;5007693;28;20021;-79
2024/02/14 13:05:37;;;;;;;4.75;1.30;;;;;;;;;;5007256;28;20059;-81
2024/02/14 13:08:03;;;;;;;4.55;1.15;;;;;;;;;;5021936;28;20013;-80
2024/02/14 13:10:31;;;;;;;5.13;1.20;;;;;;;;;;5004335;28;20041;-80
2024/02/14 13:12:57;;;;;;;6.18;1.40;;;;;;;;;;5006072;28;20032;-80
2024/02/14 13:15:23;;;;;;;6.55;1.60;;;;;;;;;;5002858;28;20817;-78
2024/02/14 13:17:49;;;;;;;5.10;1.30;;;;;;;;;;5004388;28;20040;-78
2024/02/14 13:20:16;;;;;;;6.50;1.67;;;;;;;;;;5010122;28;20032;-80
2024/02/14 13:22:42;;;;;;;6.53;1.70;;;;;;;;;;5015070;28;20033;-78
2024/02/14 13:25:08;;;;;;;6.32;1.40;;;;;;;;;;5016406;28;20119;-78
2024/02/14 13:27:35;;;;;;;7.40;1.50;;;;;;;;;;4994964;28;20128;-78
2024/02/14 13:30:02;;;;;;;7.90;1.50;;;;;;;;;;5014323;28;20033;-77
2024/02/14 13:32:28;;;;;;;8.05;1.60;;;;;;;;;;5003902;28;20212;-77
2024/02/14 13:34:54;;;;;;;6.22;1.30;;;;;;;;;;5017922;28;20631;-78
2024/02/14 13:37:21;;;;;;;6.07;1.60;;;;;;;;;;5004340;28;20064;-77
2024/02/14 13:39:47;;;;;;;6.57;1.48;;;;;;;;;;4996062;28;20118;-78
2024/02/14 13:42:13;;;;;;;6.25;1.27;;;;;;;;;;5001127;28;20037;-78
2024/02/14 13:44:39;;;;;;;6.97;1.50;;;;;;;;;;5002994;28;20033;-79
2024/02/14 13:47:06;;;;;;;7.30;1.85;;;;;;;;;;5001023;28;20033;-79
2024/02/14 13:49:32;;;;;;;7.38;1.58;;;;;;;;;;4999269;28;20036;-76
2024/02/14 13:51:58;;;;;;;5.82;1.40;;;;;;;;;;5018567;28;20033;-77
2024/02/14 13:54:24;;;;;;;6.72;1.20;;;;;;;;;;5002054;28;20039;-77
2024/02/14 13:56:51;;;;;;;5.63;1.30;;;;;;;;;;4996829;28;20037;-77
2024/02/14 13:59:18;;;;;;;6.85;1.30;;;;;;;;;;4999573;28;20033;-78
2024/02/14 14:01:46;;;;;;;5.78;1.38;;;;;;;;;;5018100;28;20037;-78
2024/02/14 14:04:12;;;;;;;5.15;1.38;;;;;;;;;;5016761;28;20033;-77
2024/02/14 14:06:39;;;;;;;6.95;1.58;;;;;;;;;;5016989;28;20560;-78
2024/02/14 14:09:07;;;;;;;7.45;1.30;;;;;;;;;;5019637;28;20029;-78
2024/02/14 14:11:34;;;;;;;5.18;1.08;;;;;;;;;;5015578;28;20029;-78
2024/02/14 14:14:00;;;;;;;8.05;1.40;;;;;;;;;;5003620;28;20032;-77
2024/02/14 14:16:26;;;;;;;6.22;1.25;;;;;;;;;;5020121;28;20046;-78
2024/02/14 14:18:52;;;;;;;7.78;1.88;;;;;;;;;;5002815;28;20484;-78
2024/02/14 14:21:18;;;;;;;4.47;1.48;;;;;;;;;;5017701;28;20036;-77
2024/02/14 14:23:45;;;;;;;7.28;1.70;;;;;;;;;;4999415;28;20102;-79
2024/02/14 14:26:13;;;;;;;7.47;1.60;;;;;;;;;;4998760;28;20037;-78
2024/02/14 14:28:39;;;;;;;5.65;1.58;;;;;;;;;;4999723;28;20039;-78
2024/02/14 14:31:05;;;;;;;9.85;1.63;;;;;;;;;;5020808;28;20036;-78
2024/02/14 14:33:31;;;;;;;5.15;1.20;;;;;;;;;;5016315;28;20025;-78
2024/02/14 14:35:58;;;;;;;7.45;2.00;;;;;;;;;;4998712;28;20029;-78
2024/02/14 14:38:26;;;;;;;6.82;1.95;;;;;;;;;;5016714;28;20062;-78
2024/02/14 14:40:55;;;;;;;5.20;1.45;;;;;;;;;;5005125;28;20052;-78
2024/02/14 14:43:21;;;;;;;4.72;1.00;;;;;;;;;;5008254;28;20116;-78
2024/02/14 14:45:49;;;;;;;4.07;0.98;;;;;;;;;;5005627;28;20060;-77